createdAt,value
2023-02-26T00:02:25.157Z,7.11
2023-02-26T00:04:55.896Z,7.48
2023-02-26T00:07:30.501Z,7.16
2023-02-26T00:10:02.925Z,6.81
2023-02-26T00:12:33.993Z,7.03
2023-02-26T00:15:03.732Z,7.22
2023-02-26T00:17:43.049Z,6.73
2023-02-26T00:20:14.189Z,6.71
2023-02-26T00:22:44.342Z,6.68
2023-02-26T00:25:15.591Z,6.67
2023-02-26T00:27:44.933Z,6.38
2023-02-26T00:30:15.893Z,6.52
2023-02-26T00:32:46.234Z,6.28
2023-02-26T00:35:17.598Z,6.39
2023-02-26T00:38:01.764Z,6.50
2023-02-26T00:40:48.618Z,6.30
2023-02-26T00:43:22.719Z,6.17
2023-02-26T00:45:57.650Z,6.19
2023-02-26T00:48:39.751Z,6.21
2023-02-26T00:51:18.737Z,5.88
2023-02-26T00:53:52.115Z,5.96
2023-02-26T00:56:22.736Z,6.14
2023-02-26T00:58:52.662Z,5.94
2023-02-26T01:01:21.386Z,5.82
2023-02-26T01:03:51.547Z,5.83
2023-02-26T01:06:23.080Z,6.20
2023-02-26T01:08:56.562Z,6.17
2023-02-26T01:11:28.362Z,6.14
2023-02-26T01:13:58.053Z,6.11
2023-02-26T01:16:31.758Z,6.28
2023-02-26T01:19:13.673Z,5.85
2023-02-26T01:21:48.252Z,5.91
2023-02-26T01:24:19.301Z,5.72
2023-02-26T01:26:50.812Z,5.96
2023-02-26T01:29:20.892Z,5.85
2023-02-26T01:31:57.656Z,5.51
2023-02-26T01:34:33.637Z,5.83
2023-02-26T01:37:08.943Z,5.63
2023-02-26T01:39:43.083Z,5.45
2023-02-26T01:42:20.630Z,5.59
2023-02-26T01:44:57.647Z,5.65
2023-02-26T01:47:33.493Z,5.46
2023-02-26T01:50:13.027Z,5.26
2023-02-26T01:53:17.940Z,5.42
2023-02-26T01:55:50.112Z,5.41
2023-02-26T01:58:22.589Z,5.20
2023-02-26T02:00:53.343Z,5.08
2023-02-26T02:03:23.452Z,4.97
2023-02-26T02:05:56.075Z,5.23
2023-02-26T02:08:25.009Z,4.85
2023-02-26T02:10:55.285Z,5.07
2023-02-26T02:13:46.340Z,4.83
2023-02-26T02:16:26.961Z,4.96
2023-02-26T02:19:04.378Z,4.90
2023-02-26T02:22:06.421Z,4.88
2023-02-26T02:24:42.832Z,5.07
2023-02-26T02:27:19.277Z,5.14
2023-02-26T02:30:03.730Z,5.08
2023-02-26T02:32:38.362Z,5.23
2023-02-26T02:35:14.080Z,4.72
2023-02-26T02:37:48.967Z,5.18
2023-02-26T02:40:26.484Z,5.11
2023-02-26T02:43:02.146Z,5.21
2023-02-26T02:45:37.322Z,4.96
2023-02-26T02:48:12.495Z,4.90
2023-02-26T02:50:46.117Z,4.85
2023-02-26T02:53:19.749Z,4.94
2023-02-26T02:55:53.407Z,4.85
2023-02-26T02:58:26.419Z,4.99
2023-02-26T03:00:58.331Z,4.83
2023-02-26T03:03:33.947Z,4.85
2023-02-26T03:06:08.631Z,4.98
2023-02-26T03:08:41.146Z,4.66
2023-02-26T03:11:10.676Z,4.70
2023-02-26T03:13:42.435Z,4.87
2023-02-26T03:16:24.199Z,4.54
2023-02-26T03:19:02.227Z,4.63
2023-02-26T03:21:45.180Z,4.76
2023-02-26T03:24:17.807Z,4.66
2023-02-26T03:26:49.995Z,4.70
2023-02-26T03:29:25.722Z,4.70
2023-02-26T03:31:56.530Z,4.70
2023-02-26T03:37:32.127Z,4.78
2023-02-26T03:40:07.175Z,4.42
2023-02-26T03:42:38.952Z,4.61
2023-02-26T03:45:12.254Z,4.74
2023-02-26T03:47:42.975Z,4.66
2023-02-26T03:50:16.640Z,4.69
2023-02-26T03:52:47.185Z,4.66
2023-02-26T03:55:19.279Z,4.58
2023-02-26T03:57:48.553Z,4.29
2023-02-26T04:00:19.914Z,4.40
2023-02-26T04:02:58.668Z,4.45
2023-02-26T04:05:33.557Z,4.19
2023-02-26T04:08:03.448Z,4.40
2023-02-26T04:10:39.131Z,4.17
2023-02-26T04:13:10.648Z,4.27
2023-02-26T04:15:42.951Z,4.21
2023-02-26T04:18:14.716Z,4.18
2023-02-26T04:20:46.298Z,4.12
2023-02-26T04:23:15.456Z,4.26
2023-02-26T04:25:45.077Z,4.14
2023-02-26T04:28:13.861Z,4.11
2023-02-26T04:30:42.997Z,4.03
2023-02-26T04:33:11.838Z,4.00
2023-02-26T04:35:44.799Z,3.87
2023-02-26T04:38:14.623Z,3.94
2023-02-26T04:40:43.635Z,4.03
2023-02-26T04:43:12.386Z,3.92
2023-02-26T04:45:41.005Z,4.01
2023-02-26T04:48:10.384Z,3.96
2023-02-26T04:50:39.167Z,3.91
2023-02-26T04:53:09.372Z,3.67
2023-02-26T04:55:42.450Z,3.82
2023-02-26T04:58:11.761Z,3.81
2023-02-26T05:00:43.612Z,3.74
2023-02-26T05:03:13.730Z,3.83
2023-02-26T05:05:44.252Z,4.02
2023-02-26T05:08:15.821Z,3.90
2023-02-26T05:10:47.918Z,3.91
2023-02-26T05:13:16.616Z,4.00
2023-02-26T05:15:46.183Z,3.94
2023-02-26T05:18:15.176Z,3.93
2023-02-26T05:20:45.985Z,3.83
2023-02-26T05:23:17.399Z,3.87
2023-02-26T05:25:48.309Z,3.89
2023-02-26T05:28:20.660Z,3.78
2023-02-26T05:30:51.320Z,3.83
2023-02-26T05:33:21.236Z,3.90
2023-02-26T05:35:50.490Z,3.84
2023-02-26T05:38:29.117Z,3.78
2023-02-26T05:41:00.430Z,3.74
2023-02-26T05:43:31.503Z,3.50
2023-02-26T05:46:01.530Z,3.55
2023-02-26T05:48:31.022Z,3.73
2023-02-26T05:51:01.460Z,3.67
2023-02-26T05:53:30.458Z,3.64
2023-02-26T05:56:03.673Z,3.50
2023-02-26T05:58:34.904Z,3.42
2023-02-26T06:01:05.932Z,3.44
2023-02-26T06:03:36.404Z,3.50
2023-02-26T06:06:07.421Z,3.53
2023-02-26T06:08:37.513Z,3.54
2023-02-26T06:11:08.032Z,3.49
2023-02-26T06:13:38.103Z,3.59
2023-02-26T06:16:10.301Z,3.54
2023-02-26T06:18:42.699Z,3.49
2023-02-26T06:21:12.801Z,3.43
2023-02-26T06:26:29.038Z,3.37
2023-02-26T06:28:58.634Z,3.38
2023-02-26T06:31:28.675Z,3.26
2023-02-26T06:33:58.875Z,3.33
2023-02-26T06:36:28.785Z,3.35
2023-02-26T06:39:01.403Z,3.34
2023-02-26T06:41:35.473Z,3.26
2023-02-26T06:44:04.868Z,3.21
2023-02-26T06:46:34.811Z,3.27
2023-02-26T06:49:10.281Z,3.14
2023-02-26T06:51:40.562Z,3.17
2023-02-26T06:54:09.756Z,3.23
2023-02-26T06:56:42.648Z,3.14
2023-02-26T06:59:12.902Z,3.17
2023-02-26T07:01:42.290Z,3.10
2023-02-26T07:04:12.084Z,3.11
2023-02-26T07:06:42.154Z,3.09
2023-02-26T07:09:11.679Z,3.07
2023-02-26T07:11:43.444Z,3.00
2023-02-26T07:14:12.033Z,3.30
2023-02-26T07:16:42.958Z,3.38
2023-02-26T07:19:11.839Z,3.48
2023-02-26T07:21:40.822Z,3.43
2023-02-26T07:24:18.447Z,3.59
2023-02-26T07:26:54.678Z,3.73
2023-02-26T07:29:27.189Z,4.00
2023-02-26T07:31:56.969Z,3.94
2023-02-26T07:34:26.799Z,4.16
2023-02-26T07:36:55.617Z,4.24
2023-02-26T07:39:25.926Z,4.36
2023-02-26T07:41:56.461Z,4.58
2023-02-26T07:44:26.554Z,4.66
2023-02-26T07:46:55.645Z,4.70
2023-02-26T07:49:25.740Z,5.00
2023-02-26T07:57:30.913Z,5.39
2023-02-26T08:02:56.516Z,5.69
2023-02-26T08:05:28.304Z,5.61
2023-02-26T08:07:58.885Z,5.84
2023-02-26T08:10:28.359Z,5.94
2023-02-26T08:13:00.027Z,6.22
2023-02-26T08:15:32.133Z,6.14
2023-02-26T08:18:03.755Z,6.33
2023-02-26T08:20:37.212Z,6.34
2023-02-26T08:39:26.293Z,6.63
2023-02-26T08:41:55.380Z,7.02
2023-02-26T08:44:27.150Z,7.52
2023-02-26T08:47:13.601Z,7.20
2023-02-26T08:50:08.866Z,7.10
2023-02-26T09:02:28.706Z,7.76
2023-02-26T09:05:03.787Z,8.18
2023-02-26T09:07:32.660Z,8.03
2023-02-26T09:10:01.305Z,7.97
2023-02-26T09:12:29.878Z,8.10
2023-02-26T09:15:01.911Z,8.12
2023-02-26T09:17:32.622Z,8.26
2023-02-26T09:20:02.062Z,7.98
2023-02-26T09:22:38.366Z,7.95
2023-02-26T09:25:07.739Z,8.44
2023-02-26T09:27:36.599Z,8.55
2023-02-26T09:30:05.671Z,8.44
2023-02-26T09:32:35.666Z,8.57
2023-02-26T09:35:04.753Z,8.86
2023-02-26T09:37:33.513Z,8.77
2023-02-26T09:40:03.534Z,8.91
2023-02-26T09:42:49.336Z,8.78
2023-02-26T09:45:26.322Z,8.67
2023-02-26T09:47:56.413Z,9.47
2023-02-26T09:50:27.552Z,9.40
2023-02-26T09:53:00.791Z,9.67
2023-02-26T09:55:31.849Z,9.76
2023-02-26T09:58:01.902Z,10.13
2023-02-26T10:00:38.496Z,10.00
2023-02-26T10:03:18.234Z,10.01
2023-02-26T10:05:55.191Z,10.36
2023-02-26T10:08:28.292Z,10.08
2023-02-26T10:11:03.835Z,10.50
2023-02-26T10:13:57.074Z,10.08
2023-02-26T10:16:29.807Z,10.61
2023-02-26T10:19:05.229Z,10.99
2023-02-26T10:21:42.802Z,11.04
2023-02-26T10:24:15.749Z,11.04
2023-02-26T10:26:50.531Z,11.25
2023-02-26T10:29:26.077Z,11.27
2023-02-26T10:32:03.936Z,11.12
2023-02-26T10:34:37.607Z,11.13
2023-02-26T10:37:16.445Z,11.21
2023-02-26T10:39:59.242Z,11.36
2023-02-26T10:42:29.844Z,11.57
2023-02-26T10:45:13.073Z,10.99
2023-02-26T10:47:47.732Z,11.32
2023-02-26T10:50:21.333Z,11.43
2023-02-26T10:52:51.310Z,11.31
2023-02-26T10:55:32.196Z,11.32
2023-02-26T10:58:05.323Z,11.64
2023-02-26T11:00:35.940Z,11.28
2023-02-26T11:03:05.416Z,11.20
2023-02-26T11:05:35.749Z,11.52
2023-02-26T11:08:08.001Z,11.52
2023-02-26T11:10:43.556Z,12.09
2023-02-26T11:13:13.005Z,12.20
2023-02-26T11:15:42.409Z,11.71
2023-02-26T11:18:17.068Z,11.95
2023-02-26T11:20:48.264Z,11.70
2023-02-26T11:23:20.489Z,12.16
2023-02-26T11:25:53.621Z,12.30
2023-02-26T11:28:24.667Z,12.81
2023-02-26T11:30:54.820Z,12.80
2023-02-26T11:33:26.015Z,13.13
2023-02-26T11:36:02.594Z,12.78
2023-02-26T11:38:33.836Z,13.06
2023-02-26T11:41:03.253Z,13.24
2023-02-26T11:43:37.893Z,13.90
2023-02-26T11:46:07.660Z,14.00
2023-02-26T11:48:41.893Z,13.47
2023-02-26T11:51:16.510Z,14.12
2023-02-26T11:53:51.456Z,14.10
2023-02-26T11:56:26.711Z,13.92
2023-02-26T11:58:56.908Z,14.56
2023-02-26T12:01:30.043Z,14.49
2023-02-26T12:04:03.656Z,14.49
2023-02-26T12:06:36.085Z,14.28
2023-02-26T12:09:12.626Z,14.70
2023-02-26T12:12:10.351Z,14.49
2023-02-26T12:15:08.895Z,13.62
2023-02-26T12:17:51.666Z,13.55
2023-02-26T12:20:25.988Z,13.24
2023-02-26T12:23:07.552Z,13.36
2023-02-26T12:26:00.545Z,13.87
2023-02-26T12:28:53.087Z,13.92
2023-02-26T12:31:48.645Z,14.00
2023-02-26T12:34:38.677Z,13.81
2023-02-26T12:37:21.660Z,14.36
2023-02-26T12:40:00.048Z,13.88
2023-02-26T12:42:45.332Z,13.60
2023-02-26T12:45:29.540Z,14.21
2023-02-26T12:48:08.555Z,14.33
2023-02-26T12:50:46.526Z,13.73
2023-02-26T12:53:41.303Z,13.19
2023-02-26T12:56:32.937Z,12.18
2023-02-26T12:59:16.196Z,12.40
2023-02-26T13:02:01.965Z,12.18
2023-02-26T13:05:03.731Z,11.99
2023-02-26T13:07:58.330Z,11.56
2023-02-26T13:10:35.233Z,11.95
2023-02-26T13:13:17.320Z,11.58
2023-02-26T13:15:58.178Z,11.96
2023-02-26T13:18:34.411Z,11.53
2023-02-26T13:21:09.361Z,11.32
2023-02-26T13:23:42.324Z,11.41
2023-02-26T13:26:13.206Z,11.79
2023-02-26T13:28:47.122Z,11.79
2023-02-26T13:31:19.140Z,12.01
2023-02-26T13:33:49.939Z,11.78
2023-02-26T13:36:18.875Z,11.35
2023-02-26T13:39:02.460Z,11.66
2023-02-26T13:41:40.505Z,11.96
2023-02-26T13:44:38.210Z,11.92
2023-02-26T13:47:22.792Z,11.74
2023-02-26T13:49:59.652Z,12.02
2023-02-26T13:52:38.269Z,11.80
2023-02-26T13:55:07.133Z,12.53
2023-02-26T13:57:38.951Z,12.56
2023-02-26T14:00:30.916Z,11.83
2023-02-26T14:03:11.988Z,12.37
2023-02-26T14:06:19.828Z,12.07
2023-02-26T14:08:50.646Z,12.37
2023-02-26T14:12:02.178Z,12.57
2023-02-26T14:14:42.351Z,12.64
2023-02-26T14:17:42.793Z,12.86
2023-02-26T14:20:22.561Z,12.01
2023-02-26T14:23:12.354Z,12.22
2023-02-26T14:25:42.340Z,12.56
2023-02-26T14:28:39.187Z,12.91
2023-02-26T14:31:28.136Z,13.06
2023-02-26T14:34:22.991Z,12.90
2023-02-26T14:36:54.201Z,13.00
2023-02-26T14:39:30.628Z,13.25
2023-02-26T14:42:03.973Z,13.01
2023-02-26T14:44:40.234Z,13.38
2023-02-26T14:47:10.261Z,13.38
2023-02-26T14:49:43.001Z,12.97
2023-02-26T14:52:38.303Z,13.03
2023-02-26T14:55:45.541Z,12.39
2023-02-26T14:58:28.453Z,12.85
2023-02-26T15:01:16.055Z,13.11
2023-02-26T15:04:05.261Z,13.06
2023-02-26T15:06:48.369Z,13.06
2023-02-26T15:09:23.249Z,12.86
2023-02-26T15:12:05.545Z,12.60
2023-02-26T15:14:59.796Z,12.91
2023-02-26T15:17:38.989Z,12.54
2023-02-26T15:20:15.424Z,12.71
2023-02-26T15:22:58.728Z,12.82
2023-02-26T15:25:31.769Z,12.44
2023-02-26T15:28:00.414Z,12.66
2023-02-26T15:30:37.705Z,12.51
2023-02-26T15:33:12.892Z,12.26
2023-02-26T15:35:41.272Z,12.41
2023-02-26T15:38:12.240Z,12.56
2023-02-26T15:40:44.138Z,12.70
2023-02-26T15:43:17.096Z,12.99
2023-02-26T15:45:47.413Z,12.87
2023-02-26T15:48:19.786Z,12.41
2023-02-26T15:50:54.008Z,12.06
2023-02-26T15:53:30.873Z,12.42
2023-02-26T15:56:02.590Z,12.55
2023-02-26T15:58:36.880Z,13.09
2023-02-26T16:01:06.183Z,12.23
2023-02-26T16:03:36.951Z,12.63
2023-02-26T16:06:08.953Z,12.46
2023-02-26T16:08:41.469Z,12.32
2023-02-26T16:11:10.566Z,11.34
2023-02-26T16:13:43.447Z,11.36
2023-02-26T16:16:17.264Z,11.67
2023-02-26T16:18:46.891Z,10.94
2023-02-26T16:21:23.285Z,11.05
2023-02-26T16:23:55.472Z,10.35
2023-02-26T16:26:36.980Z,10.17
2023-02-26T16:29:13.101Z,10.37
2023-02-26T16:31:42.400Z,10.08
2023-02-26T16:34:25.123Z,9.84
2023-02-26T16:36:57.119Z,10.00
2023-02-26T16:39:31.594Z,9.73
2023-02-26T16:42:09.415Z,9.71
2023-02-26T16:44:51.347Z,9.61
2023-02-26T16:47:24.817Z,9.10
2023-02-26T16:49:54.294Z,9.10
2023-02-26T16:52:26.062Z,9.22
2023-02-26T16:55:02.015Z,8.71
2023-02-26T16:57:37.676Z,8.73
2023-02-26T17:00:10.996Z,8.78
2023-02-26T17:02:43.380Z,8.59
2023-02-26T17:05:22.582Z,8.54
2023-02-26T17:07:58.271Z,8.71
2023-02-26T17:10:34.178Z,8.47
2023-02-26T17:13:15.258Z,8.74
2023-02-26T17:15:45.483Z,8.33
2023-02-26T17:18:14.671Z,8.42
2023-02-26T17:20:43.834Z,8.19
2023-02-26T17:23:15.743Z,8.17
2023-02-26T17:25:47.256Z,8.20
2023-02-26T17:28:18.933Z,8.26
2023-02-26T17:30:47.311Z,7.97
2023-02-26T17:33:15.978Z,7.96
2023-02-26T17:35:44.783Z,8.03
2023-02-26T17:38:16.045Z,7.77
2023-02-26T17:40:48.754Z,7.88
2023-02-26T17:43:17.123Z,7.82
2023-02-26T17:45:45.651Z,7.78
2023-02-26T17:48:15.302Z,7.62
2023-02-26T17:50:47.270Z,7.78
2023-02-26T17:53:16.365Z,7.72
2023-02-26T17:55:47.086Z,7.63
2023-02-26T17:58:18.061Z,7.64
2023-02-26T18:00:49.800Z,7.47
2023-02-26T18:03:18.662Z,7.56
2023-02-26T18:05:47.186Z,7.33
2023-02-26T18:08:22.294Z,7.51
2023-02-26T18:10:52.243Z,7.56
2023-02-26T18:13:21.253Z,7.54
2023-02-26T18:15:50.417Z,7.41
2023-02-26T18:18:20.410Z,7.28
2023-02-26T18:20:49.338Z,6.99
2023-02-26T18:23:18.095Z,7.29
2023-02-26T18:25:49.252Z,7.18
2023-02-26T18:28:21.549Z,7.09
2023-02-26T18:30:50.205Z,7.02
2023-02-26T18:33:19.381Z,7.06
2023-02-26T18:35:51.891Z,7.06
2023-02-26T18:38:24.571Z,7.16
2023-02-26T18:40:56.335Z,7.09
2023-02-26T18:43:26.354Z,7.01
2023-02-26T18:46:01.524Z,7.13
2023-02-26T18:52:13.126Z,7.33
2023-02-26T18:54:42.024Z,7.11
2023-02-26T18:57:13.697Z,7.22
2023-02-26T18:59:43.756Z,7.31
2023-02-26T19:02:14.485Z,7.26
2023-02-26T19:04:43.832Z,7.31
2023-02-26T19:07:12.516Z,7.49
2023-02-26T19:09:40.796Z,7.49
2023-02-26T19:12:11.015Z,7.59
2023-02-26T19:15:05.405Z,7.59
2023-02-26T19:17:33.949Z,7.64
2023-02-26T19:20:03.750Z,7.42
2023-02-26T19:22:34.287Z,7.66
2023-02-26T19:25:02.779Z,7.48
2023-02-26T19:27:31.356Z,7.68
2023-02-26T19:30:03.534Z,7.69
2023-02-26T19:32:32.151Z,7.68
2023-02-26T19:35:00.717Z,7.64
2023-02-26T19:37:29.044Z,7.74
2023-02-26T19:39:57.559Z,7.63
2023-02-26T19:42:28.651Z,7.46
2023-02-26T19:44:57.166Z,7.62
2023-02-26T19:47:27.278Z,7.62
2023-02-26T19:49:55.668Z,7.55
2023-02-26T19:52:24.015Z,7.58
2023-02-26T19:55:00.098Z,7.46
2023-02-26T19:57:28.531Z,7.45
2023-02-26T19:59:57.178Z,7.28
2023-02-26T20:02:27.008Z,7.32
2023-02-26T20:04:55.490Z,7.13
2023-02-26T20:07:24.052Z,7.09
2023-02-26T20:09:52.431Z,7.09
2023-02-26T20:12:21.303Z,7.05
2023-02-26T20:14:49.864Z,7.00
2023-02-26T20:17:22.048Z,6.93
2023-02-26T20:19:51.874Z,7.01
2023-02-26T20:22:22.851Z,6.87
2023-02-26T20:24:52.324Z,6.93
2023-02-26T20:27:21.023Z,6.97
2023-02-26T20:29:50.938Z,6.84
2023-02-26T20:32:19.533Z,6.97
2023-02-26T20:34:48.108Z,6.86
2023-02-26T20:37:17.904Z,6.99
2023-02-26T20:39:46.309Z,6.97
2023-02-26T20:42:14.697Z,7.07
2023-02-26T20:44:43.195Z,7.05
2023-02-26T20:47:11.639Z,7.03
2023-02-26T20:49:40.108Z,6.99
2023-02-26T20:52:08.702Z,6.95
2023-02-26T20:54:38.728Z,6.98
2023-02-26T20:57:07.452Z,7.05
2023-02-26T20:59:35.797Z,7.05
2023-02-26T21:02:04.209Z,7.05
2023-02-26T21:04:32.635Z,6.94
2023-02-26T21:07:12.938Z,6.85
2023-02-26T21:09:43.921Z,6.81
2023-02-26T21:12:12.806Z,6.74
2023-02-26T21:14:41.024Z,6.80
2023-02-26T21:17:09.265Z,6.76
2023-02-26T21:19:37.829Z,6.74
2023-02-26T21:22:06.335Z,6.64
2023-02-26T21:24:34.924Z,6.61
2023-02-26T21:27:05.048Z,6.51
2023-02-26T21:29:33.650Z,6.53
2023-02-26T21:32:03.729Z,6.57
2023-02-26T21:34:34.271Z,6.56
2023-02-26T21:37:03.326Z,6.45
2023-02-26T21:39:32.602Z,6.48
2023-02-26T21:42:03.808Z,6.55
2023-02-26T21:44:34.959Z,6.57
2023-02-26T21:47:04.049Z,6.51
2023-02-26T21:49:33.116Z,6.48
2023-02-26T21:52:03.013Z,6.48
2023-02-26T21:54:31.816Z,6.45
2023-02-26T21:57:00.750Z,6.44
2023-02-26T21:59:29.575Z,6.32
2023-02-26T22:01:59.451Z,6.35
2023-02-26T22:04:28.226Z,6.20
2023-02-26T22:06:56.838Z,6.34
2023-02-26T22:09:25.086Z,6.42
2023-02-26T22:11:54.023Z,6.38
2023-02-26T22:14:22.453Z,6.37
2023-02-26T22:16:50.951Z,6.44
2023-02-26T22:19:20.930Z,6.37
2023-02-26T22:21:49.744Z,6.43
2023-02-26T22:24:18.146Z,6.48
2023-02-26T22:26:48.953Z,6.51
2023-02-26T22:29:19.305Z,6.54
2023-02-26T22:31:48.803Z,6.61
2023-02-26T22:34:17.301Z,6.55
2023-02-26T22:36:47.201Z,6.58
2023-02-26T22:39:15.977Z,6.62
2023-02-26T22:41:48.807Z,6.51
2023-02-26T22:44:17.208Z,6.57
2023-02-26T22:46:47.233Z,6.64
2023-02-26T22:49:15.675Z,6.59
2023-02-26T22:51:44.431Z,6.87
2023-02-26T22:54:14.364Z,6.79
2023-02-26T22:56:42.823Z,6.89
2023-02-26T22:59:11.392Z,6.90
2023-02-26T23:01:40.235Z,6.83
2023-02-26T23:04:09.110Z,6.85
2023-02-26T23:06:38.110Z,6.93
2023-02-26T23:09:07.937Z,7.01
2023-02-26T23:11:38.009Z,6.88
2023-02-26T23:14:06.320Z,6.90
2023-02-26T23:16:34.702Z,6.94
2023-02-26T23:19:04.526Z,6.94
2023-02-26T23:21:32.969Z,6.87
2023-02-26T23:24:01.331Z,6.83
2023-02-26T23:26:32.166Z,6.77
2023-02-26T23:29:02.027Z,7.04
2023-02-26T23:31:31.607Z,6.96
2023-02-26T23:34:00.326Z,6.97
2023-02-26T23:36:28.980Z,6.88
2023-02-26T23:38:57.470Z,6.89
2023-02-26T23:41:26.235Z,6.93
2023-02-26T23:43:54.693Z,6.86
2023-02-26T23:46:24.568Z,6.98
2023-02-26T23:48:53.164Z,6.81
2023-02-26T23:51:21.598Z,6.85
2023-02-26T23:53:49.880Z,6.80
2023-02-26T23:56:18.431Z,6.71
2023-02-26T23:58:46.881Z,6.74
